Time;durP1;ratioP1;P1;durP2;ratioP2;P2;SDS_P1;SDS_P2;PMS_P1;PMS_P2;Temp;Humidity;BMP_temperature;BMP_pressure;BME280_temperature;BME280_humidity;BME280_pressure;Samples;Min_cycle;Max_cycle;Signal;HPM_P1;HPM_P2
2022/07/24 00:00:40;;;;;;;4.70;2.20;;;17.20;99.90;;;;;;5047218;28;20075;-57
2022/07/24 00:03:06;;;;;;;5.53;2.55;;;17.20;99.90;;;;;;5049268;28;20044;-56
2022/07/24 00:05:32;;;;;;;4.20;2.50;;;17.20;99.90;;;;;;5054820;28;20052;-58
2022/07/24 00:07:58;;;;;;;5.35;2.40;;;17.20;99.90;;;;;;5052091;28;20382;-57
2022/07/24 00:10:24;;;;;;;4.93;2.50;;;17.20;99.90;;;;;;5051461;28;20048;-56
2022/07/24 00:12:50;;;;;;;4.95;2.75;;;17.20;99.90;;;;;;5055958;28;20049;-58
2022/07/24 00:15:17;;;;;;;5.57;2.60;;;17.10;99.90;;;;;;5031209;28;20395;-57
2022/07/24 00:17:43;;;;;;;3.97;2.63;;;17.10;99.90;;;;;;5052587;28;20080;-57
2022/07/24 00:20:10;;;;;;;3.63;2.38;;;17.10;99.90;;;;;;5024132;28;20156;-58
2022/07/24 00:22:36;;;;;;;6.60;2.60;;;17.10;99.90;;;;;;5054533;28;20133;-58
2022/07/24 00:25:03;;;;;;;4.30;2.80;;;17.10;99.90;;;;;;5053698;28;20094;-58
2022/07/24 00:27:28;;;;;;;3.75;2.20;;;17.00;99.90;;;;;;5049932;28;20118;-57
2022/07/24 00:29:54;;;;;;;4.47;2.70;;;17.00;99.90;;;;;;5045140;28;20325;-57
2022/07/24 00:32:20;;;;;;;3.50;2.67;;;17.00;99.90;;;;;;5032943;28;20049;-57
2022/07/24 00:34:46;;;;;;;6.25;2.78;;;17.00;99.90;;;;;;5037122;28;21418;-58
2022/07/24 00:37:12;;;;;;;3.50;2.97;;;17.00;99.90;;;;;;5051038;28;20498;-57
2022/07/24 00:39:38;;;;;;;5.60;2.80;;;17.00;99.90;;;;;;5051230;28;20186;-58
2022/07/24 00:42:04;;;;;;;5.47;2.95;;;16.90;99.90;;;;;;5033382;28;20049;-56
2022/07/24 00:44:29;;;;;;;3.55;2.90;;;17.00;99.90;;;;;;5051226;28;20097;-57
2022/07/24 00:46:55;;;;;;;4.25;2.90;;;16.90;99.90;;;;;;5028656;28;20110;-58
2022/07/24 00:49:21;;;;;;;4.65;3.00;;;16.90;99.90;;;;;;5034046;28;20052;-58
2022/07/24 00:51:49;;;;;;;3.75;3.03;;;16.90;99.90;;;;;;5050727;28;20044;-57
2022/07/24 00:54:17;;;;;;;4.55;3.10;;;16.90;99.90;;;;;;5028537;28;20044;-57
2022/07/24 00:56:44;;;;;;;4.07;3.10;;;16.90;99.90;;;;;;5052442;28;20045;-58
2022/07/24 00:59:11;;;;;;;6.18;2.90;;;16.90;99.90;;;;;;5033725;28;20057;-57
2022/07/24 01:01:37;;;;;;;3.70;2.70;;;16.90;99.90;;;;;;5032786;28;20052;-58
2022/07/24 01:04:04;;;;;;;4.80;2.88;;;16.90;99.90;;;;;;5044585;28;20056;-57
2022/07/24 01:06:30;;;;;;;4.45;3.00;;;16.80;99.90;;;;;;5054652;28;20049;-58
2022/07/24 01:08:56;;;;;;;4.65;2.90;;;16.90;99.90;;;;;;5013677;28;20040;-57
2022/07/24 01:11:23;;;;;;;3.92;2.90;;;16.90;99.90;;;;;;5052460;28;20036;-57
2022/07/24 01:13:50;;;;;;;6.88;2.83;;;16.90;99.90;;;;;;5038327;28;20406;-58
2022/07/24 01:16:16;;;;;;;5.40;2.90;;;16.90;99.90;;;;;;5033842;28;20494;-57
2022/07/24 01:18:42;;;;;;;3.63;3.33;;;16.90;99.90;;;;;;5051289;28;20085;-58
2022/07/24 01:21:08;;;;;;;3.72;3.00;;;16.80;99.90;;;;;;5045444;28;20049;-57
2022/07/24 01:23:34;;;;;;;3.67;2.75;;;16.80;99.90;;;;;;5053823;28;20049;-57
2022/07/24 01:26:01;;;;;;;5.97;3.13;;;16.80;99.90;;;;;;5050016;28;20490;-57
2022/07/24 01:28:27;;;;;;;3.55;2.80;;;16.80;99.90;;;;;;5049638;28;20068;-58
2022/07/24 01:30:53;;;;;;;3.70;3.00;;;16.80;99.90;;;;;;5048090;28;20060;-58
2022/07/24 01:33:20;;;;;;;3.85;2.95;;;16.80;99.90;;;;;;5032971;28;20588;-57
2022/07/24 01:35:45;;;;;;;6.57;3.20;;;16.80;99.90;;;;;;5051226;28;20051;-58
2022/07/24 01:38:13;;;;;;;5.13;3.03;;;16.80;99.90;;;;;;5051488;28;20044;-58
2022/07/24 01:40:39;;;;;;;4.32;3.08;;;16.80;99.90;;;;;;5016824;28;20514;-57
2022/07/24 01:43:05;;;;;;;5.32;3.25;;;16.80;99.90;;;;;;5030993;28;20115;-57
2022/07/24 01:45:31;;;;;;;6.45;3.35;;;16.80;99.90;;;;;;5029073;28;20114;-57
2022/07/24 01:47:57;;;;;;;4.82;3.58;;;16.80;99.90;;;;;;5048671;28;20057;-56
2022/07/24 01:50:22;;;;;;;4.20;3.65;;;16.80;99.90;;;;;;5052506;28;20367;-56
2022/07/24 01:52:48;;;;;;;3.65;3.35;;;16.80;99.90;;;;;;5048103;28;20410;-56
2022/07/24 01:55:14;;;;;;;5.30;3.60;;;16.80;99.90;;;;;;5053844;28;20453;-57
2022/07/24 01:57:40;;;;;;;6.80;3.92;;;16.80;99.90;;;;;;5052257;28;20770;-57
2022/07/24 02:00:11;;;;;;;4.75;3.53;;;16.70;99.90;;;;;;5029467;28;20140;-57
2022/07/24 02:02:38;;;;;;;4.47;3.72;;;16.80;99.90;;;;;;5034378;28;20076;-57
2022/07/24 02:05:04;;;;;;;4.05;3.10;;;16.80;99.90;;;;;;5052665;28;20084;-56
2022/07/24 02:07:30;;;;;;;7.45;3.30;;;16.80;99.90;;;;;;5054196;28;20045;-57
2022/07/24 02:09:55;;;;;;;4.28;3.38;;;16.80;99.90;;;;;;5048084;28;20060;-57
2022/07/24 02:12:21;;;;;;;4.90;3.40;;;16.80;99.90;;;;;;5051905;28;20179;-58
2022/07/24 02:14:47;;;;;;;5.20;3.40;;;16.80;99.90;;;;;;5052819;28;20391;-57
2022/07/24 02:17:13;;;;;;;3.70;3.20;;;16.80;99.90;;;;;;5053993;28;20072;-57
2022/07/24 02:19:39;;;;;;;6.45;3.50;;;16.80;99.90;;;;;;5048164;28;20045;-56
2022/07/24 02:22:04;;;;;;;5.75;3.35;;;16.80;99.90;;;;;;5040121;28;20048;-57
2022/07/24 02:24:30;;;;;;;8.30;3.47;;;16.80;99.90;;;;;;5047510;28;20458;-57
2022/07/24 02:26:56;;;;;;;4.45;3.40;;;16.80;99.90;;;;;;5056856;28;20064;-57
2022/07/24 02:29:22;;;;;;;7.30;3.40;;;16.80;99.90;;;;;;5048291;28;20056;-55
2022/07/24 02:31:47;;;;;;;5.22;3.33;;;16.80;99.90;;;;;;5050958;28;20121;-57
2022/07/24 02:34:13;;;;;;;5.07;3.63;;;16.70;99.90;;;;;;5053407;28;20126;-58
2022/07/24 02:36:39;;;;;;;5.43;3.67;;;16.70;99.90;;;;;;5034283;28;20041;-57
2022/07/24 02:39:05;;;;;;;5.47;3.38;;;16.70;99.90;;;;;;5049920;28;20407;-57
2022/07/24 02:41:30;;;;;;;6.00;3.90;;;16.70;99.90;;;;;;5035446;28;20051;-57
2022/07/24 02:43:56;;;;;;;5.95;3.72;;;16.70;99.90;;;;;;5017915;28;20540;-57
2022/07/24 02:46:22;;;;;;;4.95;3.67;;;16.70;99.90;;;;;;5032500;28;20059;-57
2022/07/24 02:48:48;;;;;;;4.07;3.70;;;16.70;99.90;;;;;;5015687;28;20044;-56
2022/07/24 02:51:14;;;;;;;4.45;3.70;;;16.60;99.90;;;;;;5015802;28;20078;-57
2022/07/24 02:53:40;;;;;;;3.70;3.40;;;16.70;99.90;;;;;;5034782;28;20136;-57
2022/07/24 02:56:06;;;;;;;4.55;3.80;;;16.70;99.90;;;;;;5035406;28;20116;-57
2022/07/24 02:58:32;;;;;;;4.85;3.90;;;16.70;99.90;;;;;;5031587;28;20626;-57
2022/07/24 03:00:58;;;;;;;6.47;4.10;;;16.60;99.90;;;;;;5033032;28;20413;-57
2022/07/24 03:03:24;;;;;;;4.82;4.32;;;16.60;99.90;;;;;;5027172;28;20056;-56
2022/07/24 03:05:50;;;;;;;4.35;3.95;;;16.60;99.90;;;;;;5009986;28;20060;-58
2022/07/24 03:08:15;;;;;;;5.95;3.90;;;16.60;99.90;;;;;;5028865;28;20233;-57
2022/07/24 03:10:41;;;;;;;4.85;4.03;;;16.60;99.90;;;;;;5040773;28;20182;-56
2022/07/24 03:13:08;;;;;;;4.75;4.25;;;16.60;99.90;;;;;;5009371;28;27184;-57
2022/07/24 03:15:34;;;;;;;6.97;4.47;;;16.60;99.90;;;;;;5038819;28;20068;-57
2022/07/24 03:18:00;;;;;;;5.35;4.18;;;16.60;99.90;;;;;;5040334;28;20049;-58
2022/07/24 03:20:28;;;;;;;7.15;4.47;;;16.60;99.90;;;;;;5035045;28;20178;-58
2022/07/24 03:22:55;;;;;;;8.40;4.55;;;16.60;99.90;;;;;;5038058;28;20492;-57
2022/07/24 03:25:21;;;;;;;6.35;4.70;;;16.60;99.90;;;;;;5039388;28;20641;-56
2022/07/24 03:27:48;;;;;;;5.45;4.50;;;16.50;99.90;;;;;;5058668;28;20182;-57
2022/07/24 03:30:15;;;;;;;8.43;4.82;;;16.50;99.90;;;;;;5049452;28;20109;-57
2022/07/24 03:32:41;;;;;;;6.55;4.53;;;16.50;99.90;;;;;;5053562;28;20049;-57
2022/07/24 03:35:07;;;;;;;4.97;4.47;;;16.50;99.90;;;;;;5057247;28;20364;-57
2022/07/24 03:37:33;;;;;;;7.40;4.60;;;16.50;99.90;;;;;;5056486;28;20113;-57
2022/07/24 03:39:59;;;;;;;6.22;5.10;;;16.50;99.90;;;;;;5042339;28;20049;-57
2022/07/24 03:42:25;;;;;;;6.97;4.50;;;16.50;99.90;;;;;;5042860;28;20044;-57
2022/07/24 03:44:50;;;;;;;5.93;4.95;;;16.50;99.90;;;;;;5056456;28;20124;-56
2022/07/24 03:47:16;;;;;;;8.57;4.88;;;16.50;99.90;;;;;;5057005;28;20131;-57
2022/07/24 03:49:42;;;;;;;8.10;4.43;;;16.50;99.90;;;;;;5054861;28;20136;-57
2022/07/24 03:52:08;;;;;;;6.20;5.15;;;16.50;99.90;;;;;;5057262;28;20040;-57
2022/07/24 03:54:34;;;;;;;6.97;5.22;;;16.50;99.90;;;;;;5055009;28;20044;-57
2022/07/24 03:56:59;;;;;;;5.90;5.28;;;16.50;99.90;;;;;;5018202;28;20152;-57
2022/07/24 03:59:25;;;;;;;8.20;4.72;;;16.50;99.90;;;;;;5057146;28;20068;-57
2022/07/24 04:01:51;;;;;;;5.53;4.78;;;16.50;99.90;;;;;;5058110;28;20049;-57
2022/07/24 04:04:17;;;;;;;5.97;4.82;;;16.50;99.90;;;;;;5049525;28;20087;-56
2022/07/24 04:06:43;;;;;;;6.43;5.05;;;16.50;99.90;;;;;;5054508;28;20044;-56
2022/07/24 04:09:09;;;;;;;6.30;5.47;;;16.50;99.90;;;;;;5040194;28;20117;-57
2022/07/24 04:11:35;;;;;;;7.50;6.57;;;16.50;99.90;;;;;;5047973;28;20041;-56
2022/07/24 04:14:01;;;;;;;6.07;5.47;;;16.50;99.90;;;;;;5051944;28;20071;-56
2022/07/24 04:16:27;;;;;;;9.95;5.63;;;16.50;99.90;;;;;;5054087;28;20045;-57
2022/07/24 04:18:53;;;;;;;7.90;5.25;;;16.50;99.90;;;;;;5049545;28;20028;-56
2022/07/24 04:21:19;;;;;;;6.20;5.32;;;16.50;99.90;;;;;;5050499;28;20138;-58
2022/07/24 04:23:45;;;;;;;6.85;5.30;;;16.50;99.90;;;;;;5052827;28;20048;-58
2022/07/24 04:26:11;;;;;;;7.07;5.13;;;16.50;99.90;;;;;;5032264;28;20109;-58
2022/07/24 04:28:36;;;;;;;6.10;5.20;;;16.50;99.90;;;;;;5045813;28;20056;-57
2022/07/24 04:31:03;;;;;;;6.10;5.50;;;16.50;99.90;;;;;;5056813;28;20511;-57
2022/07/24 04:33:29;;;;;;;5.45;4.93;;;16.50;99.90;;;;;;5056273;28;20453;-58
2022/07/24 04:35:55;;;;;;;7.10;5.72;;;16.50;99.90;;;;;;5045917;28;20049;-57
2022/07/24 04:38:20;;;;;;;7.82;5.10;;;16.50;99.90;;;;;;5048215;28;20044;-58
2022/07/24 04:40:46;;;;;;;6.20;5.20;;;16.30;99.90;;;;;;5049270;28;20056;-57
2022/07/24 04:43:12;;;;;;;6.32;5.32;;;16.50;99.90;;;;;;5050658;28;20033;-56
2022/07/24 04:45:38;;;;;;;5.95;5.35;;;16.50;99.90;;;;;;5055985;28;20494;-56
2022/07/24 04:48:04;;;;;;;6.40;5.63;;;16.50;99.90;;;;;;5055438;28;20562;-58
2022/07/24 04:50:30;;;;;;;7.63;5.53;;;16.50;99.90;;;;;;5032420;28;20552;-55
2022/07/24 04:52:56;;;;;;;6.10;5.50;;;16.50;99.90;;;;;;5054780;28;20051;-57
2022/07/24 04:55:22;;;;;;;6.68;5.60;;;16.60;99.90;;;;;;5052180;28;20056;-58
2022/07/24 04:57:47;;;;;;;8.80;5.97;;;16.60;99.90;;;;;;5031078;28;20789;-57
2022/07/24 05:00:15;;;;;;;6.55;5.47;;;16.60;99.90;;;;;;5040582;28;20056;-57
2022/07/24 05:02:41;;;;;;;7.70;5.90;;;16.60;99.90;;;;;;5056095;28;20128;-58
2022/07/24 05:05:07;;;;;;;5.95;5.10;;;16.60;99.90;;;;;;5036181;28;20075;-57
2022/07/24 05:07:33;;;;;;;8.13;5.70;;;16.70;99.90;;;;;;5052084;28;20122;-57
2022/07/24 05:09:59;;;;;;;9.57;5.75;;;16.80;99.90;;;;;;5050461;28;20045;-57
2022/07/24 05:12:26;;;;;;;7.28;5.72;;;16.90;99.90;;;;;;5049771;28;20478;-58
2022/07/24 05:14:52;;;;;;;8.27;6.20;;;17.00;99.90;;;;;;5055629;28;20508;-58
2022/07/24 05:17:18;;;;;;;7.93;5.82;;;17.00;99.90;;;;;;5051641;28;20583;-56
2022/07/24 05:19:44;;;;;;;6.93;6.22;;;17.10;99.90;;;;;;5053023;28;20064;-58
2022/07/24 05:22:10;;;;;;;7.35;6.00;;;17.10;99.90;;;;;;5053063;28;20037;-57
2022/07/24 05:24:36;;;;;;;8.65;5.85;;;17.20;99.90;;;;;;5036139;28;20064;-58
2022/07/24 05:27:02;;;;;;;7.40;5.55;;;17.20;99.90;;;;;;5055580;28;20048;-58
2022/07/24 05:29:27;;;;;;;7.40;6.03;;;17.20;99.90;;;;;;5048636;28;20057;-58
2022/07/24 05:31:54;;;;;;;6.70;6.05;;;17.30;99.90;;;;;;5048844;28;20048;-57
2022/07/24 05:34:21;;;;;;;6.93;6.22;;;17.30;99.90;;;;;;5074616;28;20505;-57
2022/07/24 05:36:47;;;;;;;7.30;6.18;;;17.30;99.90;;;;;;5064561;28;20556;-56
2022/07/24 05:39:13;;;;;;;8.07;6.68;;;17.30;99.90;;;;;;5065896;28;20117;-58
2022/07/24 05:41:39;;;;;;;8.80;5.72;;;17.30;99.90;;;;;;5057807;28;20052;-58
2022/07/24 05:44:05;;;;;;;10.10;6.53;;;17.30;99.90;;;;;;5065268;28;20505;-57
2022/07/24 05:46:31;;;;;;;9.68;7.03;;;17.30;99.90;;;;;;5045826;28;20110;-57
2022/07/24 05:48:57;;;;;;;10.10;6.70;;;17.30;99.90;;;;;;5048378;28;20493;-58
2022/07/24 05:51:23;;;;;;;8.88;7.22;;;17.40;99.90;;;;;;5053529;28;20041;-57
2022/07/24 05:53:48;;;;;;;8.23;7.18;;;17.30;99.90;;;;;;5069111;28;20051;-57
2022/07/24 05:56:14;;;;;;;8.50;6.82;;;17.30;99.90;;;;;;5069401;28;20040;-58
2022/07/24 05:58:40;;;;;;;9.98;7.28;;;17.40;99.90;;;;;;5066633;28;20127;-58
2022/07/24 06:01:06;;;;;;;10.23;7.65;;;17.40;99.90;;;;;;5074843;28;20190;-57
2022/07/24 06:03:32;;;;;;;10.32;7.13;;;17.50;99.90;;;;;;5075764;28;20075;-56
2022/07/24 06:05:57;;;;;;;11.27;7.40;;;17.50;99.90;;;;;;5070889;28;20055;-57
2022/07/24 06:08:23;;;;;;;9.90;8.10;;;17.60;99.90;;;;;;5069331;28;20498;-58
2022/07/24 06:10:49;;;;;;;13.70;8.02;;;17.70;99.90;;;;;;5063842;28;20044;-58
2022/07/24 06:13:15;;;;;;;12.65;8.00;;;17.80;99.90;;;;;;5070399;28;20392;-58
2022/07/24 06:15:41;;;;;;;8.68;7.68;;;17.90;99.90;;;;;;5050150;28;20644;-58
2022/07/24 06:18:07;;;;;;;11.15;8.32;;;18.00;99.90;;;;;;5074979;28;20125;-58
2022/07/24 06:20:32;;;;;;;10.25;8.10;;;18.10;99.90;;;;;;5069011;28;20044;-57
2022/07/24 06:22:58;;;;;;;14.20;8.82;;;18.10;99.90;;;;;;5073134;28;20040;-58
2022/07/24 06:25:24;;;;;;;12.20;8.32;;;18.20;99.90;;;;;;5067891;28;20089;-59
2022/07/24 06:27:53;;;;;;;12.88;8.80;;;18.30;99.90;;;;;;5047757;28;20080;-58
2022/07/24 06:30:25;;;;;;;13.38;9.77;;;18.40;99.90;;;;;;5058184;28;21105;-58
2022/07/24 06:32:53;;;;;;;14.25;9.77;;;18.40;99.90;;;;;;5047011;28;20554;-57
2022/07/24 06:35:19;;;;;;;12.40;8.65;;;18.50;99.90;;;;;;5065054;28;20044;-59
2022/07/24 06:37:45;;;;;;;12.63;8.80;;;18.60;99.90;;;;;;5059539;28;20040;-59
2022/07/24 06:40:11;;;;;;;13.20;9.90;;;18.70;99.90;;;;;;5060922;28;20063;-59
2022/07/24 06:42:37;;;;;;;13.75;9.85;;;18.80;99.90;;;;;;5075210;28;20043;-59
2022/07/24 06:45:04;;;;;;;12.55;9.63;;;18.90;99.90;;;;;;5063032;28;20044;-58
2022/07/24 06:47:30;;;;;;;11.25;9.25;;;19.00;99.90;;;;;;5068592;28;20052;-58
2022/07/24 06:49:56;;;;;;;13.93;9.85;;;19.10;99.90;;;;;;5044243;28;20048;-59
2022/07/24 06:52:22;;;;;;;14.18;9.98;;;19.20;99.90;;;;;;5071115;28;20513;-58
2022/07/24 06:54:48;;;;;;;14.30;10.10;;;19.30;99.90;;;;;;5066997;28;20052;-59
2022/07/24 06:57:14;;;;;;;13.88;9.70;;;19.40;99.90;;;;;;5072434;28;20036;-58
2022/07/24 06:59:40;;;;;;;14.23;10.10;;;19.50;99.90;;;;;;5065885;28;20044;-58
2022/07/24 07:02:06;;;;;;;17.23;10.18;;;19.60;99.90;;;;;;5070726;28;20498;-58
2022/07/24 07:04:32;;;;;;;13.88;9.93;;;19.70;99.90;;;;;;5065884;28;20048;-59
2022/07/24 07:06:58;;;;;;;17.15;10.93;;;19.80;99.90;;;;;;5069452;28;20092;-59
2022/07/24 07:09:24;;;;;;;13.63;10.93;;;19.90;99.90;;;;;;5072250;28;20078;-58
2022/07/24 07:11:50;;;;;;;13.38;10.43;;;20.10;99.90;;;;;;5069346;28;20107;-58
2022/07/24 07:14:16;;;;;;;16.35;10.27;;;20.10;99.90;;;;;;5069486;28;20075;-59
2022/07/24 07:16:43;;;;;;;14.32;10.35;;;20.20;99.90;;;;;;5068090;28;20036;-59
2022/07/24 07:19:08;;;;;;;13.65;10.60;;;20.30;99.90;;;;;;5065555;28;20094;-59
2022/07/24 07:21:36;;;;;;;13.35;9.80;;;20.40;99.90;;;;;;5072699;28;20040;-58
2022/07/24 07:24:02;;;;;;;13.60;9.95;;;20.50;99.90;;;;;;5075487;28;20379;-58
2022/07/24 07:26:28;;;;;;;13.63;10.00;;;20.60;99.90;;;;;;5073678;28;20467;-58
2022/07/24 07:28:54;;;;;;;12.20;9.48;;;20.70;99.90;;;;;;5075545;28;20186;-59
2022/07/24 07:31:20;;;;;;;13.77;9.65;;;20.80;99.90;;;;;;5077071;28;20496;-58
2022/07/24 07:33:46;;;;;;;13.48;9.30;;;21.00;99.90;;;;;;5075729;28;20045;-59
2022/07/24 07:36:11;;;;;;;12.73;8.70;;;21.20;99.90;;;;;;5054589;28;20047;-59
2022/07/24 07:38:38;;;;;;;13.45;8.25;;;21.40;99.90;;;;;;5067000;28;20041;-58
2022/07/24 07:41:05;;;;;;;11.82;8.00;;;21.70;99.90;;;;;;5072707;28;20051;-59
2022/07/24 07:43:31;;;;;;;9.80;6.72;;;21.90;99.70;;;;;;5069511;28;20052;-57
2022/07/24 07:45:57;;;;;;;7.53;6.38;;;22.10;99.30;;;;;;5071011;28;20566;-59
2022/07/24 07:48:23;;;;;;;8.95;5.50;;;22.20;98.50;;;;;;5061552;28;20712;-59
2022/07/24 07:50:49;;;;;;;6.00;4.80;;;22.30;98.00;;;;;;5056284;28;20135;-59
2022/07/24 07:53:15;;;;;;;6.18;4.40;;;22.30;98.00;;;;;;5056371;28;20504;-59
2022/07/24 07:55:42;;;;;;;5.95;4.10;;;22.30;97.60;;;;;;5066923;28;20046;-59
2022/07/24 07:58:09;;;;;;;6.60;4.47;;;22.40;97.40;;;;;;5068941;28;20119;-59
2022/07/24 08:00:36;;;;;;;7.53;4.88;;;22.40;97.20;;;;;;5056929;28;20359;-59
2022/07/24 08:03:02;;;;;;;6.95;4.65;;;22.40;96.80;;;;;;5055395;28;20478;-59
2022/07/24 08:05:29;;;;;;;6.43;4.70;;;22.40;96.90;;;;;;5054879;28;20059;-59
2022/07/24 08:07:55;;;;;;;7.55;4.90;;;22.50;97.30;;;;;;5075890;28;20052;-59
2022/07/24 08:10:21;;;;;;;5.55;4.40;;;22.50;96.90;;;;;;5061642;28;20709;-60
2022/07/24 08:12:47;;;;;;;7.00;4.18;;;22.60;96.90;;;;;;5085149;28;20040;-59
2022/07/24 08:15:13;;;;;;;7.45;5.30;;;22.70;96.80;;;;;;5071779;28;20435;-59
2022/07/24 08:17:39;;;;;;;8.30;4.70;;;22.70;96.50;;;;;;5067352;28;20043;-59
2022/07/24 08:20:05;;;;;;;5.53;4.68;;;22.80;96.30;;;;;;5072716;28;20081;-60
2022/07/24 08:22:31;;;;;;;6.22;4.63;;;22.90;96.20;;;;;;5071255;28;20171;-59
2022/07/24 08:24:57;;;;;;;6.25;4.30;;;23.00;95.90;;;;;;5050561;28;20827;-60
2022/07/24 08:27:22;;;;;;;6.60;4.57;;;23.20;95.70;;;;;;5068589;28;21523;-59
2022/07/24 08:29:48;;;;;;;6.20;4.30;;;23.40;95.60;;;;;;5067372;28;21100;-58
2022/07/24 08:32:14;;;;;;;5.45;4.00;;;23.50;95.20;;;;;;5080428;28;20039;-59
2022/07/24 08:34:40;;;;;;;7.00;4.50;;;23.50;95.30;;;;;;5076964;28;20051;-59
2022/07/24 08:37:06;;;;;;;5.15;4.35;;;23.60;95.00;;;;;;5063199;28;20560;-59
2022/07/24 08:39:32;;;;;;;6.63;4.65;;;23.60;94.80;;;;;;5081240;28;20055;-58
2022/07/24 08:41:58;;;;;;;7.22;4.50;;;23.60;94.70;;;;;;5081790;28;20123;-59
2022/07/24 08:44:23;;;;;;;5.15;4.30;;;23.60;94.80;;;;;;5079147;28;20052;-59
2022/07/24 08:46:52;;;;;;;7.25;4.90;;;23.70;94.70;;;;;;5061025;28;20733;-58
2022/07/24 08:49:21;;;;;;;5.22;4.03;;;23.70;94.50;;;;;;5055261;28;20675;-59
2022/07/24 08:51:49;;;;;;;5.40;3.90;;;23.70;94.10;;;;;;5066718;28;20512;-59
2022/07/24 08:54:15;;;;;;;5.38;3.60;;;23.70;93.90;;;;;;5072163;28;20046;-60
2022/07/24 08:56:41;;;;;;;4.75;3.50;;;23.80;93.70;;;;;;5070237;28;20596;-60
2022/07/24 08:59:21;;;;;;;6.78;3.75;;;23.80;93.20;;;;;;5067069;28;20501;-59
2022/07/24 09:01:50;;;;;;;6.47;3.53;;;23.80;93.60;;;;;;5064317;28;20048;-59
2022/07/24 09:04:32;;;;;;;6.63;3.85;;;23.90;93.50;;;;;;5070821;28;20043;-59
2022/07/24 09:07:00;;;;;;;8.32;3.67;;;24.10;93.10;;;;;;5064444;28;20486;-59
2022/07/24 09:09:26;;;;;;;5.45;3.30;;;24.30;92.70;;;;;;5066952;28;20102;-58
2022/07/24 09:12:08;;;;;;;4.78;3.60;;;24.40;91.90;;;;;;5049638;28;20044;-65
2022/07/24 09:14:37;;;;;;;6.78;3.17;;;24.30;91.90;;;;;;5047986;28;20477;-64
2022/07/24 09:17:11;;;;;;;8.13;3.70;;;24.30;91.70;;;;;;5047672;28;20126;-67
2022/07/24 09:20:03;;;;;;;5.82;3.88;;;24.30;91.90;;;;;;5037105;28;20040;-66
2022/07/24 09:22:36;;;;;;;5.68;3.50;;;24.40;92.50;;;;;;5038370;28;20432;-67
2022/07/24 09:25:24;;;;;;;4.30;3.35;;;24.60;92.20;;;;;;5052633;28;20508;-66
2022/07/24 09:27:58;;;;;;;5.63;3.42;;;25.00;91.50;;;;;;5054806;28;20059;-68
2022/07/24 09:30:33;;;;;;;7.43;3.35;;;25.20;91.40;;;;;;5027768;28;20132;-70
2022/07/24 09:33:04;;;;;;;4.80;3.28;;;25.40;90.80;;;;;;5046900;28;20076;-70
2022/07/24 09:35:45;;;;;;;6.43;3.05;;;25.50;90.30;;;;;;5045206;28;20041;-65
2022/07/24 09:38:13;;;;;;;6.60;3.50;;;25.70;90.40;;;;;;5044051;28;21160;-65
2022/07/24 09:40:42;;;;;;;6.40;3.42;;;25.80;90.10;;;;;;5052916;28;20044;-64
2022/07/24 09:43:17;;;;;;;7.20;3.28;;;26.00;90.00;;;;;;5041010;28;20517;-65
2022/07/24 09:46:06;;;;;;;3.95;3.08;;;26.20;89.80;;;;;;5052468;28;20382;-62
2022/07/24 09:48:49;;;;;;;7.82;3.33;;;26.30;88.70;;;;;;5051254;28;20097;-65
2022/07/24 09:51:16;;;;;;;65.22;13.18;;;26.40;87.50;;;;;;5049724;28;21035;-66
2022/07/24 09:53:44;;;;;;;37.78;6.07;;;26.50;86.20;;;;;;5035903;28;20040;-67
2022/07/24 09:56:13;;;;;;;4.40;2.63;;;26.50;85.30;;;;;;5043413;28;20044;-66
2022/07/24 09:58:44;;;;;;;8.88;3.72;;;26.50;85.60;;;;;;5055942;28;20067;-66
2022/07/24 10:01:10;;;;;;;7.57;2.97;;;26.70;85.30;;;;;;5049219;28;20058;-69
2022/07/24 10:03:39;;;;;;;3.92;2.60;;;27.00;85.50;;;;;;5046882;28;20140;-69
2022/07/24 10:06:07;;;;;;;7.40;2.55;;;27.20;83.20;;;;;;5041544;28;20787;-68
2022/07/24 10:08:34;;;;;;;4.57;2.42;;;27.20;81.40;;;;;;5065153;28;20048;-68
2022/07/24 10:11:01;;;;;;;3.50;2.42;;;27.20;82.10;;;;;;5043391;28;20742;-69
2022/07/24 10:13:28;;;;;;;4.03;2.40;;;27.10;80.50;;;;;;5034497;28;20086;-69
2022/07/24 10:16:09;;;;;;;2.90;2.40;;;27.00;80.30;;;;;;5049359;28;20501;-67
2022/07/24 10:18:46;;;;;;;7.00;2.85;;;26.90;80.40;;;;;;5048211;28;20045;-65
2022/07/24 10:21:36;;;;;;;4.82;2.50;;;26.80;80.10;;;;;;5046911;28;20048;-64
2022/07/24 10:24:05;;;;;;;4.85;2.70;;;26.70;79.90;;;;;;5049224;28;20052;-65
2022/07/24 10:26:36;;;;;;;3.30;2.30;;;26.60;79.90;;;;;;5040853;28;20044;-66
2022/07/24 10:29:12;;;;;;;6.47;2.60;;;26.60;80.10;;;;;;5072759;28;20044;-69
2022/07/24 10:31:43;;;;;;;3.83;2.30;;;26.70;78.20;;;;;;5041335;28;20048;-67
2022/07/24 10:34:24;;;;;;;3.20;2.40;;;26.70;78.20;;;;;;5049831;28;20040;-66
2022/07/24 10:37:27;;;;;;;3.72;2.20;;;26.70;79.30;;;;;;5046512;28;20044;-67
2022/07/24 10:40:16;;;;;;;3.65;2.42;;;26.70;78.70;;;;;;5061979;28;20040;-66
2022/07/24 10:43:13;;;;;;;3.60;2.28;;;26.60;77.20;;;;;;5041228;28;20405;-66
2022/07/24 10:45:43;;;;;;;3.63;2.35;;;26.60;78.10;;;;;;5065450;28;20689;-68
2022/07/24 10:48:25;;;;;;;4.32;2.35;;;26.70;76.90;;;;;;5042234;28;20537;-66
2022/07/24 10:50:57;;;;;;;7.15;2.30;;;26.80;76.60;;;;;;5057501;28;20166;-65
2022/07/24 10:53:48;;;;;;;3.42;2.30;;;27.00;76.00;;;;;;5045717;28;20502;-65
2022/07/24 10:56:36;;;;;;;8.55;2.90;;;27.20;75.70;;;;;;5034127;28;20460;-66
2022/07/24 10:59:10;;;;;;;5.03;2.35;;;27.10;74.50;;;;;;5061629;28;20481;-65
2022/07/24 11:01:44;;;;;;;5.50;2.63;;;27.10;73.90;;;;;;5062713;28;20535;-65
2022/07/24 11:04:19;;;;;;;5.65;2.55;;;26.90;74.20;;;;;;5048488;28;20055;-64
2022/07/24 11:06:59;;;;;;;4.85;2.42;;;27.00;74.10;;;;;;5064115;28;20087;-65
2022/07/24 11:09:27;;;;;;;4.22;2.38;;;27.20;74.40;;;;;;5045976;28;20593;-62
2022/07/24 11:11:55;;;;;;;4.15;2.50;;;27.20;74.00;;;;;;5058780;28;20055;-62
2022/07/24 11:14:41;;;;;;;4.63;2.40;;;27.20;73.70;;;;;;5057939;28;20482;-63
2022/07/24 11:17:35;;;;;;;2.90;2.38;;;27.40;74.10;;;;;;5058138;28;20040;-62
2022/07/24 11:20:03;;;;;;;4.60;2.40;;;27.60;73.70;;;;;;5058112;28;20075;-63
2022/07/24 11:22:57;;;;;;;3.78;2.42;;;27.90;72.10;;;;;;5064336;28;20502;-65
2022/07/24 11:25:25;;;;;;;6.93;2.50;;;28.10;73.60;;;;;;5046270;28;20098;-64
2022/07/24 11:27:57;;;;;;;4.45;2.65;;;28.40;72.10;;;;;;5056458;28;20049;-63
2022/07/24 11:30:28;;;;;;;3.08;2.42;;;28.60;71.30;;;;;;5060243;28;20159;-63
2022/07/24 11:32:55;;;;;;;3.93;2.50;;;28.60;69.80;;;;;;5040058;28;20113;-66
2022/07/24 11:35:34;;;;;;;6.75;2.10;;;28.50;69.30;;;;;;5060837;28;20787;-65
2022/07/24 11:38:02;;;;;;;6.25;2.38;;;28.60;70.20;;;;;;5055217;28;20102;-65
2022/07/24 11:40:28;;;;;;;5.55;2.30;;;28.70;68.80;;;;;;5067428;28;20398;-63
2022/07/24 11:42:59;;;;;;;6.13;2.58;;;28.80;67.10;;;;;;5041653;28;20129;-64
2022/07/24 11:45:25;;;;;;;4.57;2.50;;;28.80;65.90;;;;;;5021088;28;20043;-62
2022/07/24 11:47:54;;;;;;;4.72;2.20;;;28.70;66.50;;;;;;5020834;28;20063;-63
2022/07/24 11:50:24;;;;;;;4.93;2.20;;;28.40;66.50;;;;;;5042208;28;20044;-64
2022/07/24 11:52:51;;;;;;;4.50;2.22;;;28.30;67.50;;;;;;5044689;28;20081;-64
2022/07/24 11:55:24;;;;;;;6.15;2.30;;;28.50;68.40;;;;;;5047676;28;20127;-64
2022/07/24 11:57:56;;;;;;;3.17;2.40;;;28.70;68.00;;;;;;5056381;28;20394;-63
2022/07/24 12:00:24;;;;;;;3.85;2.20;;;29.00;66.80;;;;;;5042502;28;20044;-63
2022/07/24 12:02:57;;;;;;;6.45;2.10;;;29.10;66.60;;;;;;5053499;28;20049;-63
2022/07/24 12:05:28;;;;;;;3.70;2.47;;;29.30;66.20;;;;;;5053721;28;20543;-63
2022/07/24 12:07:57;;;;;;;7.30;2.33;;;29.50;66.00;;;;;;5056373;28;20584;-63
2022/07/24 12:10:23;;;;;;;6.95;2.08;;;29.60;65.90;;;;;;5032555;28;20076;-64
2022/07/24 12:12:54;;;;;;;4.13;2.20;;;29.70;64.80;;;;;;5047992;28;20044;-63
2022/07/24 12:15:21;;;;;;;3.03;2.10;;;29.70;65.50;;;;;;5053305;28;20071;-64
2022/07/24 12:18:13;;;;;;;2.55;2.05;;;29.80;64.80;;;;;;5019552;28;20040;-63
2022/07/24 12:20:40;;;;;;;;;;;29.90;64.30;;;;;;5028781;28;20131;-63
2022/07/24 12:23:09;;;;;;;4.07;1.98;;;30.00;64.10;;;;;;5049104;28;19994;-65
2022/07/24 12:25:36;;;;;;;4.82;2.50;;;30.10;63.10;;;;;;5048340;28;20461;-64
2022/07/24 12:28:10;;;;;;;2.78;2.08;;;30.20;63.30;;;;;;5046104;28;20064;-63
2022/07/24 12:30:39;;;;;;;7.63;1.98;;;30.20;62.40;;;;;;5054465;28;20053;-63
2022/07/24 12:33:14;;;;;;;6.68;2.20;;;30.30;63.50;;;;;;5029449;28;20127;-64
2022/07/24 12:36:11;;;;;;;3.45;2.13;;;30.40;61.90;;;;;;5062168;28;20048;-63
2022/07/24 12:38:51;;;;;;;2.72;1.83;;;30.50;62.50;;;;;;5031281;28;20068;-64
2022/07/24 12:41:19;;;;;;;2.78;2.10;;;30.60;61.10;;;;;;5043318;28;20048;-63
2022/07/24 12:43:49;;;;;;;10.98;2.78;;;30.60;59.80;;;;;;5038958;28;20548;-64
2022/07/24 12:46:17;;;;;;;4.32;2.00;;;30.50;60.10;;;;;;5049715;28;20056;-64
2022/07/24 12:49:10;;;;;;;3.88;2.22;;;30.50;60.20;;;;;;5022359;28;20051;-63
2022/07/24 12:51:50;;;;;;;4.90;2.20;;;30.50;60.50;;;;;;5030185;28;20533;-64